This is the latest recevied weather packets stored in our database for station/object PY2VE-13. If no packets are shown the sender has not sent any weather packets the latest 10 day(s).
| Time | Temp. | Humidity | Pressure | Rain* | Wind** | Luminosity | Snow |
|---|---|---|---|---|---|---|---|
| 1788498707 | 23.33° C | 48% | 1018.9 hPa | - | - | - | - |
| 1788497807 | 23.89° C | 45% | 1019 hPa | - | - | - | - |
| 1788496907 | 24.44° C | 44% | 1018.9 hPa | - | - | - | - |
| 1788496007 | 24.44° C | 44% | 1018.8 hPa | - | - | - | - |
| 1788495107 | 23.89° C | 46% | 1019.2 hPa | - | - | - | - |
| 1788494207 | 24.44° C | 46% | 1019.3 hPa | - | - | - | - |
| 1788493307 | 24.44° C | 45% | 1019.3 hPa | - | - | - | - |
| 1788492407 | 25° C | 44% | 1019.3 hPa | - | - | - | - |
| 1788491507 | 25° C | 44% | 1019.4 hPa | - | - | - | - |
| 1788490607 | 24.44° C | 45% | 1019.7 hPa | - | - | - | - |
| 1788489707 | 25.56° C | 43% | 1019.2 hPa | - | - | - | - |
| 1788488807 | 26.11° C | 42% | 1019.2 hPa | - | - | - | - |
| 1788487907 | 26.11° C | 42% | 1019.2 hPa | - | - | - | - |
| 1788487007 | 26.11° C | 43% | 1019.2 hPa | - | - | - | - |
| 1788486107 | 26.11° C | 43% | 1019.3 hPa | - | - | - | - |
| 1788485207 | 27.22° C | 41% | 1019.2 hPa | - | - | - | - |
| 1788484307 | 26.67° C | 43% | 1019.2 hPa | - | - | - | - |
| 1788474406 | 28.33° C | 33% | 1018.2 hPa | - | - | - | - |
| 1788472606 | 28.89° C | 33% | 1017.9 hPa | - | - | - | - |
| 1788471706 | 28.89° C | 32% | 1017.9 hPa | - | - | - | - |
| 1788467206 | 28.89° C | 31% | 1017.8 hPa | - | - | - | - |
| 1788466306 | 29.44° C | 30% | 1017.7 hPa | - | - | - | - |
| 1788464506 | 29.44° C | 30% | 1017.5 hPa | - | - | - | - |
| 1788448305 | 27.22° C | 42% | 1021 hPa | - | - | - | - |
| 1788442005 | 25° C | 45% | 1023.2 hPa | - | - | - | - |
* Rain since midnight (hover to see other rain measurements)
** Current wind speed in m/s (hover to see current wind gust speed)